createdAt,value
2017-10-05T00:01:53.734Z,27.80
2017-10-05T00:04:21.479Z,27.80
2017-10-05T00:06:49.285Z,27.17
2017-10-05T00:09:16.855Z,28.30
2017-10-05T00:11:44.455Z,26.90
2017-10-05T00:14:11.980Z,28.47
2017-10-05T00:16:39.576Z,28.93
2017-10-05T00:19:07.138Z,25.73
2017-10-05T00:21:34.674Z,28.03
2017-10-05T00:24:02.250Z,27.57
2017-10-05T00:26:29.790Z,28.00
2017-10-05T00:28:57.597Z,27.03
2017-10-05T00:31:25.167Z,26.17
2017-10-05T00:33:52.683Z,27.47
2017-10-05T00:36:20.249Z,27.70
2017-10-05T00:38:48.140Z,26.03
2017-10-05T00:41:15.664Z,24.90
2017-10-05T00:43:43.392Z,24.30
2017-10-05T00:46:10.950Z,27.20
2017-10-05T00:48:38.733Z,24.60
2017-10-05T00:51:06.274Z,25.70
2017-10-05T00:53:34.162Z,24.57
2017-10-05T00:56:01.799Z,24.80
2017-10-05T00:58:29.357Z,25.93
2017-10-05T01:00:56.970Z,26.47
2017-10-05T01:03:24.775Z,27.67
2017-10-05T01:05:52.328Z,27.50
2017-10-05T01:08:19.900Z,25.07
2017-10-05T01:10:47.501Z,26.60
2017-10-05T01:13:15.390Z,25.20
2017-10-05T01:15:42.967Z,25.97
2017-10-05T01:18:10.512Z,23.73
2017-10-05T01:20:38.396Z,24.33
2017-10-05T01:23:06.262Z,21.93
2017-10-05T01:25:33.777Z,23.57
2017-10-05T01:28:01.567Z,22.53
2017-10-05T01:30:29.124Z,22.80
2017-10-05T01:32:56.664Z,21.90
2017-10-05T01:35:24.203Z,20.97
2017-10-05T01:37:51.759Z,22.87
2017-10-05T01:40:19.510Z,20.63
2017-10-05T01:42:47.069Z,21.60
2017-10-05T01:45:14.747Z,19.23
2017-10-05T01:47:42.282Z,18.50
2017-10-05T01:50:10.141Z,18.60
2017-10-05T01:52:38.015Z,19.37
2017-10-05T01:55:05.554Z,19.73
2017-10-05T01:57:33.299Z,18.20
2017-10-05T02:00:00.878Z,20.20
2017-10-05T02:02:28.768Z,19.70
2017-10-05T02:04:56.323Z,20.80
2017-10-05T02:07:29.181Z,18.70
2017-10-05T02:09:57.061Z,21.00
2017-10-05T02:12:28.275Z,21.30
2017-10-05T02:14:56.756Z,19.93
2017-10-05T02:17:24.283Z,20.93
2017-10-05T02:19:51.798Z,19.90
2017-10-05T02:22:19.581Z,21.40
2017-10-05T02:24:47.111Z,22.20
2017-10-05T02:27:14.853Z,20.27
2017-10-05T02:29:42.449Z,20.83
2017-10-05T02:32:10.021Z,19.63
2017-10-05T02:34:37.553Z,19.57
2017-10-05T02:37:05.324Z,19.90
2017-10-05T02:39:32.928Z,19.87
2017-10-05T02:42:00.471Z,19.77
2017-10-05T02:44:28.034Z,18.73
2017-10-05T02:46:55.584Z,18.27
2017-10-05T02:49:23.350Z,17.53
2017-10-05T02:51:50.904Z,19.80
2017-10-05T02:54:18.482Z,18.47
2017-10-05T02:56:45.991Z,18.87
2017-10-05T02:59:13.519Z,17.90
2017-10-05T03:01:41.080Z,19.10
2017-10-05T03:04:08.618Z,17.87
2017-10-05T03:06:36.142Z,18.47
2017-10-05T03:09:04.226Z,17.47
2017-10-05T03:11:31.745Z,16.63
2017-10-05T03:13:59.571Z,17.27
2017-10-05T03:16:27.151Z,16.27
2017-10-05T03:18:54.667Z,17.37
2017-10-05T03:21:22.192Z,20.20
2017-10-05T03:23:49.737Z,20.03
2017-10-05T03:26:17.284Z,18.47
2017-10-05T03:28:44.809Z,19.50
2017-10-05T03:31:12.387Z,17.97
2017-10-05T03:33:39.912Z,17.47
2017-10-05T03:36:07.500Z,17.77
2017-10-05T03:38:35.059Z,17.27
2017-10-05T03:41:02.634Z,19.43
2017-10-05T03:43:30.190Z,18.67
2017-10-05T03:45:58.044Z,18.23
2017-10-05T03:48:25.580Z,19.87
2017-10-05T03:50:53.125Z,19.70
2017-10-05T03:53:20.687Z,19.73
2017-10-05T03:55:48.295Z,19.30
2017-10-05T03:58:16.817Z,19.03
2017-10-05T04:00:44.437Z,20.67
2017-10-05T04:03:11.963Z,20.50
2017-10-05T04:05:39.485Z,20.77
2017-10-05T04:08:07.086Z,21.60
2017-10-05T04:10:34.624Z,21.93
2017-10-05T04:13:02.141Z,22.47
2017-10-05T04:15:29.922Z,20.73
2017-10-05T04:17:58.224Z,19.10
2017-10-05T04:20:26.533Z,19.27
2017-10-05T04:22:54.107Z,18.77
2017-10-05T04:25:21.651Z,18.80
2017-10-05T04:27:50.165Z,19.40
2017-10-05T04:30:17.757Z,19.30
2017-10-05T04:32:45.286Z,16.30
2017-10-05T04:35:13.030Z,16.37
2017-10-05T04:37:41.368Z,12.87
2017-10-05T04:40:09.391Z,13.23
2017-10-05T04:42:36.929Z,13.57
2017-10-05T04:45:05.329Z,12.90
2017-10-05T04:47:32.841Z,14.83
2017-10-05T04:50:00.378Z,14.43
2017-10-05T04:52:29.055Z,15.07
2017-10-05T04:54:56.896Z,17.70
2017-10-05T04:57:24.419Z,17.50
2017-10-05T04:59:51.999Z,18.23
2017-10-05T05:02:19.555Z,17.37
2017-10-05T05:04:47.310Z,19.50
2017-10-05T05:07:15.064Z,16.17
2017-10-05T05:09:42.646Z,17.60
2017-10-05T05:12:10.203Z,16.57
2017-10-05T05:14:37.727Z,18.70
2017-10-05T05:17:06.344Z,17.70
2017-10-05T05:19:33.921Z,17.63
2017-10-05T05:22:01.469Z,17.30
2017-10-05T05:24:29.039Z,18.00
2017-10-05T05:26:56.595Z,17.20
2017-10-05T05:29:25.338Z,18.20
2017-10-05T05:31:53.058Z,18.43
2017-10-05T05:34:20.616Z,19.80
2017-10-05T05:36:48.359Z,19.90
2017-10-05T05:39:15.949Z,18.40
2017-10-05T05:41:43.490Z,18.40
2017-10-05T05:44:11.294Z,19.70
2017-10-05T05:46:38.845Z,18.80
2017-10-05T05:49:06.378Z,17.00
2017-10-05T05:51:33.908Z,17.10
2017-10-05T05:54:01.510Z,17.70
2017-10-05T05:56:29.422Z,20.30
2017-10-05T05:58:57.208Z,22.50
2017-10-05T06:01:25.310Z,21.33
2017-10-05T06:03:53.164Z,21.67
2017-10-05T06:06:20.698Z,23.30
2017-10-05T06:08:48.278Z,24.07
2017-10-05T06:11:15.799Z,25.80
2017-10-05T06:13:43.628Z,24.00
2017-10-05T06:16:11.198Z,22.57
2017-10-05T06:18:38.721Z,23.00
2017-10-05T06:21:06.470Z,21.87
2017-10-05T06:23:34.037Z,21.83
2017-10-05T06:26:01.558Z,23.80
2017-10-05T06:28:29.083Z,24.20
2017-10-05T06:30:56.659Z,25.23
2017-10-05T06:33:24.216Z,23.37
2017-10-05T06:35:51.730Z,24.27
2017-10-05T06:38:19.267Z,22.60
2017-10-05T06:40:47.135Z,20.33
2017-10-05T06:43:14.696Z,21.20
2017-10-05T06:45:42.470Z,21.00
2017-10-05T06:48:10.017Z,21.20
2017-10-05T06:50:37.816Z,20.80
2017-10-05T06:53:05.371Z,22.90
2017-10-05T06:55:32.893Z,23.27
2017-10-05T06:58:00.410Z,21.90
2017-10-05T07:00:27.963Z,22.43
2017-10-05T07:02:55.893Z,23.70
2017-10-05T07:05:23.593Z,23.90
2017-10-05T07:07:51.460Z,22.90
2017-10-05T07:10:19.314Z,22.23
2017-10-05T07:12:46.856Z,21.07
2017-10-05T07:15:14.664Z,21.33
2017-10-05T07:17:42.517Z,20.10
2017-10-05T07:20:10.079Z,21.20
2017-10-05T07:22:37.904Z,21.63
2017-10-05T07:25:05.693Z,23.60
2017-10-05T07:27:33.222Z,19.87
2017-10-05T07:30:00.810Z,17.40
2017-10-05T07:32:28.383Z,15.80
2017-10-05T07:34:55.913Z,16.50
2017-10-05T07:37:23.432Z,16.30
2017-10-05T07:39:50.994Z,17.07
2017-10-05T07:42:18.840Z,16.83
2017-10-05T07:44:46.657Z,16.70
2017-10-05T07:47:14.555Z,16.10
2017-10-05T07:49:42.310Z,15.37
2017-10-05T07:52:10.076Z,15.17
2017-10-05T07:54:37.661Z,17.30
2017-10-05T07:57:05.886Z,17.60
2017-10-05T07:59:33.690Z,16.30
2017-10-05T08:02:02.001Z,15.50
2017-10-05T08:04:29.611Z,15.47
2017-10-05T08:06:57.384Z,15.30
2017-10-05T08:09:25.209Z,15.13
2017-10-05T08:11:52.780Z,16.67
2017-10-05T08:14:20.326Z,15.87
2017-10-05T08:16:48.148Z,16.40
2017-10-05T08:19:15.891Z,15.90
2017-10-05T08:21:43.494Z,16.53
2017-10-05T08:24:12.229Z,14.87
2017-10-05T08:26:40.243Z,17.30
2017-10-05T08:29:07.992Z,16.90
2017-10-05T08:31:36.514Z,16.47
2017-10-05T08:34:04.046Z,16.00
2017-10-05T08:36:31.566Z,16.30
2017-10-05T08:38:59.122Z,16.13
2017-10-05T08:41:26.661Z,15.10
2017-10-05T08:43:54.176Z,15.30
2017-10-05T08:46:22.598Z,15.60
2017-10-05T08:48:50.383Z,15.30
2017-10-05T08:51:18.369Z,14.60
2017-10-05T08:53:45.950Z,16.30
2017-10-05T08:56:13.806Z,14.50
2017-10-05T08:58:42.351Z,15.90
2017-10-05T09:01:09.911Z,17.10
2017-10-05T09:03:37.829Z,17.27
2017-10-05T09:06:05.372Z,16.37
2017-10-05T09:08:32.955Z,16.27
2017-10-05T09:11:00.473Z,17.73
2017-10-05T09:13:28.019Z,16.50
2017-10-05T09:15:55.798Z,18.37
2017-10-05T09:18:23.376Z,18.73
2017-10-05T09:20:50.901Z,18.23
2017-10-05T09:23:18.476Z,19.87
2017-10-05T09:25:46.040Z,18.10
2017-10-05T09:28:13.553Z,16.60
2017-10-05T09:30:41.152Z,16.27
2017-10-05T09:33:08.670Z,17.87
2017-10-05T09:35:36.234Z,17.30
2017-10-05T09:38:03.803Z,18.43
2017-10-05T09:40:32.447Z,18.13
2017-10-05T09:43:00.241Z,18.33
2017-10-05T09:45:27.794Z,17.20
2017-10-05T09:47:55.345Z,19.50
2017-10-05T09:50:22.855Z,17.47
2017-10-05T09:52:50.654Z,17.27
2017-10-05T09:55:18.220Z,15.00
2017-10-05T09:57:45.758Z,15.93
2017-10-05T10:00:14.165Z,14.30
2017-10-05T10:02:41.705Z,15.03
2017-10-05T10:05:09.446Z,15.60
2017-10-05T10:07:37.041Z,14.57
2017-10-05T10:10:04.635Z,13.50
2017-10-05T10:12:32.454Z,14.93
2017-10-05T10:15:00.027Z,15.20
2017-10-05T10:17:27.546Z,14.63
2017-10-05T10:19:55.339Z,13.77
2017-10-05T10:22:24.272Z,13.27
2017-10-05T10:24:52.133Z,18.10
2017-10-05T10:27:19.655Z,12.80
2017-10-05T10:29:48.020Z,10.67
2017-10-05T10:32:15.556Z,9.37
2017-10-05T10:34:43.347Z,11.40
2017-10-05T10:37:10.905Z,10.90
2017-10-05T10:39:38.474Z,10.73
2017-10-05T10:42:05.987Z,9.77
2017-10-05T10:44:33.493Z,9.50
2017-10-05T10:47:01.053Z,9.80
2017-10-05T10:49:28.571Z,8.87
2017-10-05T10:51:56.389Z,8.80
2017-10-05T10:54:23.953Z,9.30
2017-10-05T10:56:51.466Z,8.93
2017-10-05T10:59:19.101Z,8.50
2017-10-05T11:01:46.695Z,7.93
2017-10-05T11:04:14.852Z,8.90
2017-10-05T11:06:42.370Z,6.83
2017-10-05T11:09:09.973Z,7.20
2017-10-05T11:11:37.720Z,6.43
2017-10-05T11:14:05.232Z,7.30
2017-10-05T11:16:32.775Z,7.70
2017-10-05T11:19:00.284Z,8.20
2017-10-05T11:21:27.826Z,6.70
2017-10-05T11:23:55.594Z,6.90
2017-10-05T11:26:23.093Z,6.20
2017-10-05T11:28:50.604Z,6.90
2017-10-05T11:31:18.179Z,6.83
2017-10-05T11:33:47.798Z,6.53
2017-10-05T11:36:15.569Z,6.73
2017-10-05T11:38:43.120Z,5.40
2017-10-05T11:41:10.647Z,6.30
2017-10-05T11:43:38.170Z,5.97
2017-10-05T11:46:06.046Z,7.70
2017-10-05T11:48:33.587Z,6.37
2017-10-05T11:51:01.094Z,5.80
2017-10-05T11:53:29.443Z,6.03
2017-10-05T11:55:56.999Z,6.30
2017-10-05T11:58:24.795Z,6.07
2017-10-05T12:00:52.347Z,6.90
2017-10-05T12:03:20.086Z,6.60
2017-10-05T12:05:47.670Z,6.30
2017-10-05T12:08:15.939Z,6.40
2017-10-05T12:10:43.446Z,6.47
2017-10-05T12:13:10.959Z,6.13
2017-10-05T12:15:40.015Z,6.63
2017-10-05T12:18:08.070Z,7.33
2017-10-05T12:20:35.608Z,8.30
2017-10-05T12:23:03.481Z,7.23
2017-10-05T12:25:31.264Z,7.33
2017-10-05T12:27:58.832Z,7.40
2017-10-05T12:30:26.611Z,7.33
2017-10-05T12:32:54.346Z,7.00
2017-10-05T12:35:21.854Z,6.47
2017-10-05T12:37:49.495Z,6.67
2017-10-05T12:40:17.034Z,6.27
2017-10-05T12:42:44.557Z,6.40
2017-10-05T12:45:12.323Z,5.77
2017-10-05T12:47:40.041Z,6.07
2017-10-05T12:50:07.987Z,6.40
2017-10-05T12:52:35.608Z,5.90
2017-10-05T12:55:04.075Z,6.50
2017-10-05T12:57:32.014Z,6.73
2017-10-05T13:00:00.370Z,6.00
2017-10-05T13:02:28.520Z,6.40
2017-10-05T13:04:56.104Z,6.70
2017-10-05T13:07:23.650Z,5.97
2017-10-05T13:09:51.473Z,7.50
2017-10-05T13:12:20.374Z,7.07
2017-10-05T13:14:48.384Z,7.50
2017-10-05T13:17:16.019Z,7.00
2017-10-05T13:19:43.571Z,8.40
2017-10-05T13:22:11.224Z,7.70
2017-10-05T13:24:38.831Z,10.03
2017-10-05T13:27:06.452Z,7.33
2017-10-05T13:29:34.148Z,6.37
2017-10-05T13:32:01.801Z,6.37
2017-10-05T13:34:29.504Z,7.27
2017-10-05T13:36:57.310Z,6.33
2017-10-05T13:39:24.961Z,6.90
2017-10-05T13:41:53.283Z,6.40
2017-10-05T13:44:20.866Z,6.40
2017-10-05T13:46:48.723Z,6.17
2017-10-05T13:49:21.095Z,6.47
2017-10-05T13:51:50.255Z,6.87
2017-10-05T13:54:32.135Z,6.07
2017-10-05T13:56:59.697Z,6.30
2017-10-05T13:59:27.725Z,6.00
2017-10-05T14:01:56.066Z,5.97
2017-10-05T14:04:23.767Z,5.73
2017-10-05T14:06:51.675Z,5.60
2017-10-05T14:09:19.459Z,6.10
2017-10-05T14:11:47.235Z,5.93
2017-10-05T14:14:14.884Z,6.33
2017-10-05T14:16:42.960Z,6.43
2017-10-05T14:19:10.573Z,6.80
2017-10-05T14:21:38.142Z,5.80
2017-10-05T14:24:05.745Z,5.70
2017-10-05T14:26:33.401Z,5.67
2017-10-05T14:29:02.152Z,6.30
2017-10-05T14:31:30.589Z,6.50
2017-10-05T14:33:58.135Z,6.17
2017-10-05T14:36:26.302Z,6.13
2017-10-05T14:38:55.369Z,6.03
2017-10-05T14:41:22.911Z,6.30
2017-10-05T14:43:50.706Z,6.00
2017-10-05T14:46:18.377Z,6.20
2017-10-05T14:48:45.974Z,6.27
2017-10-05T14:51:13.534Z,6.40
2017-10-05T14:53:41.170Z,6.30
2017-10-05T14:56:08.939Z,6.53
2017-10-05T14:58:36.712Z,6.83
2017-10-05T15:01:04.419Z,7.00
2017-10-05T15:03:33.028Z,6.40
2017-10-05T15:06:00.627Z,6.83
2017-10-05T15:08:28.334Z,8.13
2017-10-05T15:10:56.688Z,6.70
2017-10-05T15:13:24.969Z,7.90
2017-10-05T15:15:53.199Z,8.67
2017-10-05T15:18:20.987Z,9.70
2017-10-05T15:20:49.155Z,10.57
2017-10-05T15:23:17.943Z,11.10
2017-10-05T15:25:46.433Z,14.77
2017-10-05T15:28:14.582Z,12.93
2017-10-05T15:30:42.517Z,12.30
2017-10-05T15:33:11.054Z,11.10
2017-10-05T15:35:39.177Z,8.10
2017-10-05T15:38:06.947Z,7.67
2017-10-05T15:40:34.725Z,6.80
2017-10-05T15:43:03.597Z,6.33
2017-10-05T15:45:32.869Z,8.40
2017-10-05T15:48:00.502Z,10.23
2017-10-05T15:50:28.861Z,18.77
2017-10-05T15:52:56.445Z,62.47
2017-10-05T15:55:24.317Z,48.03
2017-10-05T15:57:51.944Z,41.10
2017-10-05T16:00:19.789Z,42.43
2017-10-05T16:02:47.685Z,458.87
2017-10-05T16:05:15.867Z,249.03
2017-10-05T16:07:43.471Z,312.00
2017-10-05T16:10:11.256Z,262.33
2017-10-05T16:12:38.852Z,18.53
2017-10-05T16:15:06.822Z,11.00
2017-10-05T16:17:35.729Z,10.00
2017-10-05T16:20:03.647Z,9.83
2017-10-05T16:22:32.170Z,18.92
2017-10-05T16:24:59.677Z,9.10
2017-10-05T16:27:27.734Z,10.53
2017-10-05T16:29:55.389Z,11.90
2017-10-05T16:32:24.844Z,11.20
2017-10-05T16:34:53.747Z,12.70
2017-10-05T16:37:22.155Z,12.63
2017-10-05T16:39:50.742Z,13.00
2017-10-05T16:42:18.474Z,99.90
2017-10-05T16:44:46.842Z,78.53
2017-10-05T16:47:14.722Z,25.73
2017-10-05T16:49:42.400Z,26.63
2017-10-05T16:52:11.084Z,21.80
2017-10-05T16:54:38.810Z,21.30
2017-10-05T16:57:06.480Z,24.40
2017-10-05T16:59:34.336Z,20.20
2017-10-05T17:02:02.345Z,17.97
2017-10-05T17:04:30.205Z,14.70
2017-10-05T17:06:57.742Z,12.90
2017-10-05T17:09:25.399Z,14.20
2017-10-05T17:11:53.257Z,13.77
2017-10-05T17:14:21.652Z,15.00
2017-10-05T17:16:49.521Z,14.67
2017-10-05T17:19:17.311Z,15.70
2017-10-05T17:21:44.870Z,14.80
2017-10-05T17:24:13.995Z,14.80
2017-10-05T17:26:41.526Z,13.37
2017-10-05T17:29:09.892Z,16.40
2017-10-05T17:31:39.245Z,13.57
2017-10-05T17:34:07.455Z,14.00
2017-10-05T17:36:35.811Z,13.60
2017-10-05T17:39:05.381Z,14.60
2017-10-05T17:41:32.959Z,12.83
2017-10-05T17:44:00.890Z,14.10
2017-10-05T17:46:28.533Z,15.07
2017-10-05T17:48:56.420Z,13.53
2017-10-05T17:51:23.937Z,12.90
2017-10-05T17:53:51.905Z,11.90
2017-10-05T17:56:20.102Z,14.40
2017-10-05T17:58:47.854Z,12.70
2017-10-05T18:01:16.079Z,12.70
2017-10-05T18:03:44.584Z,16.30
2017-10-05T18:06:13.027Z,15.93
2017-10-05T18:08:40.747Z,28.33
2017-10-05T18:11:08.609Z,30.33
2017-10-05T18:13:37.405Z,29.30
2017-10-05T18:16:05.029Z,37.50
2017-10-05T18:18:32.580Z,31.47
2017-10-05T18:21:01.074Z,28.73
2017-10-05T18:23:29.601Z,20.57
2017-10-05T18:25:57.427Z,25.40
2017-10-05T18:28:25.013Z,27.90
2017-10-05T18:30:53.586Z,27.83
2017-10-05T18:33:21.096Z,29.57
2017-10-05T18:35:48.900Z,27.60
2017-10-05T18:38:16.505Z,32.37
2017-10-05T18:40:44.370Z,21.83
2017-10-05T18:43:11.909Z,30.30
2017-10-05T18:45:39.531Z,33.77
2017-10-05T18:48:07.129Z,31.70
2017-10-05T18:50:34.879Z,34.00
2017-10-05T18:53:02.435Z,32.43
2017-10-05T18:55:30.041Z,32.80
2017-10-05T18:57:57.574Z,28.17
2017-10-05T19:00:25.565Z,31.07
2017-10-05T19:02:55.019Z,31.10
2017-10-05T19:05:22.769Z,29.77
2017-10-05T19:07:50.380Z,34.30
2017-10-05T19:10:18.942Z,35.87
2017-10-05T19:12:46.489Z,31.83
2017-10-05T19:15:14.206Z,37.33
2017-10-05T19:17:41.747Z,37.93
2017-10-05T19:20:09.286Z,35.93
2017-10-05T19:22:37.407Z,33.57
2017-10-05T19:25:04.950Z,31.70
2017-10-05T19:27:33.447Z,34.30
2017-10-05T19:30:01.568Z,39.43
2017-10-05T19:32:30.436Z,37.20
2017-10-05T19:34:58.633Z,32.10
2017-10-05T19:37:26.930Z,37.30
2017-10-05T19:39:54.521Z,37.20
2017-10-05T19:42:22.535Z,39.47
2017-10-05T19:44:50.054Z,36.20
2017-10-05T19:47:17.666Z,29.17
2017-10-05T19:49:45.566Z,30.77
2017-10-05T19:52:13.324Z,29.87
2017-10-05T19:54:41.014Z,28.80
2017-10-05T19:57:08.620Z,27.40
2017-10-05T19:59:36.183Z,25.00
2017-10-05T20:02:04.429Z,26.73
2017-10-05T20:04:31.954Z,22.23
2017-10-05T20:06:59.499Z,19.83
2017-10-05T20:09:27.065Z,21.90
2017-10-05T20:11:54.604Z,24.67
2017-10-05T20:17:28.965Z,20.50
2017-10-05T20:20:11.712Z,21.90
2017-10-05T20:22:54.356Z,33.13
2017-10-05T20:28:28.272Z,32.23
2017-10-05T20:30:57.205Z,27.73
2017-10-05T20:33:25.188Z,31.67
2017-10-05T20:35:53.663Z,29.97
2017-10-05T20:38:21.266Z,33.37
2017-10-05T20:40:49.049Z,34.63
2017-10-05T20:43:16.578Z,35.87
2017-10-05T20:45:44.147Z,39.23
2017-10-05T20:48:11.907Z,37.47
2017-10-05T20:50:39.514Z,34.90
2017-10-05T20:53:07.108Z,32.77
2017-10-05T20:55:34.726Z,27.23
2017-10-05T20:58:02.274Z,25.43
2017-10-05T21:00:29.889Z,25.10
2017-10-05T21:02:57.440Z,24.90
2017-10-05T21:05:24.978Z,27.27
2017-10-05T21:07:52.757Z,34.93
2017-10-05T21:10:20.575Z,30.87
2017-10-05T21:12:49.482Z,33.27
2017-10-05T21:15:17.037Z,33.90
2017-10-05T21:17:44.559Z,32.33
2017-10-05T21:20:12.091Z,32.17
2017-10-05T21:22:39.656Z,29.53
2017-10-05T21:25:07.222Z,29.83
2017-10-05T21:27:34.744Z,29.57
2017-10-05T21:30:04.257Z,31.13
2017-10-05T21:32:32.067Z,33.20
2017-10-05T21:34:59.642Z,32.63
2017-10-05T21:37:27.241Z,29.40
2017-10-05T21:39:54.751Z,29.60
2017-10-05T21:42:23.019Z,30.17
2017-10-05T21:44:50.586Z,30.00
2017-10-05T21:47:18.112Z,30.70
2017-10-05T21:49:45.657Z,31.37
2017-10-05T21:52:14.129Z,30.90
2017-10-05T21:54:41.674Z,33.87
2017-10-05T21:57:09.263Z,30.40
2017-10-05T21:59:36.826Z,35.53
2017-10-05T22:02:04.364Z,33.90
2017-10-05T22:04:31.898Z,39.37
2017-10-05T22:06:59.717Z,40.40
2017-10-05T22:09:27.270Z,37.50
2017-10-05T22:11:54.797Z,37.00
2017-10-05T22:14:22.353Z,34.40
2017-10-05T22:16:49.924Z,35.30
2017-10-05T22:19:17.466Z,33.77
2017-10-05T22:21:45.298Z,34.20
2017-10-05T22:24:12.857Z,33.90
2017-10-05T22:26:40.389Z,38.40
2017-10-05T22:29:07.906Z,35.87
2017-10-05T22:31:35.488Z,34.20
2017-10-05T22:34:03.064Z,34.87
2017-10-05T22:36:30.610Z,33.40
2017-10-05T22:38:58.179Z,33.37
2017-10-05T22:41:25.693Z,35.40
2017-10-05T22:43:53.236Z,34.67
2017-10-05T22:46:21.020Z,33.43
2017-10-05T22:48:48.765Z,31.37
2017-10-05T22:51:16.290Z,32.87
2017-10-05T22:53:43.884Z,34.27
2017-10-05T22:56:11.412Z,35.73
2017-10-05T22:58:38.921Z,34.80
2017-10-05T23:01:06.513Z,32.40
2017-10-05T23:03:34.038Z,38.00
2017-10-05T23:06:01.597Z,37.13
2017-10-05T23:08:29.169Z,36.70
2017-10-05T23:10:56.701Z,36.83
2017-10-05T23:13:24.218Z,36.97
2017-10-05T23:15:51.787Z,36.00
2017-10-05T23:18:19.302Z,36.20
2017-10-05T23:20:46.835Z,36.67
2017-10-05T23:23:14.391Z,30.70
2017-10-05T23:25:41.929Z,28.60
2017-10-05T23:28:09.684Z,28.77
2017-10-05T23:30:37.262Z,31.63
2017-10-05T23:33:05.160Z,31.40
2017-10-05T23:35:32.702Z,26.60
2017-10-05T23:38:00.245Z,27.80
2017-10-05T23:40:27.769Z,27.37
2017-10-05T23:42:55.287Z,23.23
2017-10-05T23:45:22.882Z,24.67
2017-10-05T23:47:50.405Z,24.50
2017-10-05T23:50:17.985Z,26.77
2017-10-05T23:52:45.561Z,23.70
2017-10-05T23:55:13.098Z,24.50
2017-10-05T23:57:40.622Z,24.23
